CheckWX is a tool to help pilots better visualize weather data.  It is not intended as a substitute for an official pre-flight weather briefing.

13:48:28 UTC

KORH METAR
Worcester Regional Airport
Worcester, Massachusetts, USA
Current

40 mins ago

KORH 221308Z 06005KT 1/2SM R11/4000VP6000FT FG OVC002 07/07 A3015 RMK AO2 T00720072
Observed
Oct-22 @ 13:08 UTC
Wind
  • 060° at 5 KTS
Visibility
1/2 SM
Flight Rules
LIFR
Conditions
Fog
Cloud Levels
  • Overcast at 200' AGL
Temperature
C / 45°F
Dewpoint
C / 45°F
Humidity
100%
Altimeter
30.15" Hg
Pressure
1021.02 hPa
Previous

47 mins ago

KORH 221301Z 05005KT 2SM R11/5500VP6000FT BR OVC002 07/07 A3015 RMK AO2 T00720072
Observed
Oct-22 @ 13:01 UTC
Wind
  • 050° at 5 KTS
Visibility
2 SM
Flight Rules
LIFR
Conditions
Mist
Cloud Levels
  • Overcast at 200' AGL
Temperature
C / 45°F
Dewpoint
C / 45°F
Humidity
100%
Altimeter
30.15" Hg
Pressure
1021.02 hPa
Previous

54 mins ago

KORH 221254Z 04004KT 3SM BR OVC002 07/07 A3016 RMK AO2 SLP218 T00720072
Observed
Oct-22 @ 12:54 UTC
Wind
  • 040° at 4 KTS
Visibility
3 SM
Flight Rules
LIFR
Conditions
Mist
Cloud Levels
  • Overcast at 200' AGL
Temperature
C / 45°F
Dewpoint
C / 45°F
Humidity
100%
Altimeter
30.16" Hg
Pressure
1021.32 hPa